Aérodrome :
LOGIN :

S'inscrire | Disclaimer

   EN    FR    IT 

 










Légende :    VFR   VFR Marginal   IFR   IFR Intensif   IFR Très Intensif
Visi : 
Plafond : 
>= 8 km
>= 3000ft
5 à 8 km
1000 à 3000 ft
1500m à 5 km
500 à 1000 ft
800 à 1500m
200 à 500 ft
< 800m
< 200 ft
Symboles :   Orages  Brouillard  Fortes neiges  Fortes précipitations  Vent > 20 kt
SIGMETs :   Divers  Orages  Givrage  Turbulence  Onde Orograph.  Cendres Volcan.






- Altitude de l'aérodrome : 392 ft
- Code IATA : CDG


LFPG - Paris-Aeroport Charles De Gaulle

DERNIER METAR :
  • 301900Z 19009KT 9999 VCSH FEW019CB SCT026 16/13 Q1015 TEMPO SCT025TCU

METARs EXPIRÉS :
  • 301830Z 17010KT 9999 FEW016TCU SCT017 17/13 Q1015 TEMPO SCT025TCU
  • 301800Z 18010KT 150V210 9999 SCT017 SCT040 BKN180 17/12 Q1014 TEMPO SCT025TCU
  • 301730Z 17011KT 9999 SCT016 BKN180 16/13 Q1014 TEMPO SCT025TCU
  • 301700Z 17010KT 9999 SCT015 BKN180 16/13 Q1015 TEMPO SCT025TCU
  • 301630Z 18010KT 9999 SCT014 BKN180 16/13 Q1014 TEMPO SCT025TCU

TAF TAF LFPG
Valide du 30 à 18h jusqu'au 02 à 00h UTC


301700Z 3018/0124 18010KT 9999 SCT015 SCT030 TX21/0115Z TN10/0104Z
PROB40
TEMPO 3018/3021 SCT020TCU
PROB30
TEMPO 3018/3021 4000 SHRA SCT015CB
BECMG 0100/0101 24004KT
PROB40 0101/0106 3000 BR
PROB30
TEMPO 0103/0105 0800 FG
ATIS : +33 1 48 62 10 92



MET'MAP, la Météo Aéronautique d'un coup d'oeil ! - Copyright ORBIFLY Décembre 2007 - Disclaimer

ORBIFLY MET'MAP TEAM :

Programmation & Développement : Alexandra Zaïnal
Sur une idée originale de : Baudouin d'Aumeries
Soutien technique & logistique : Manuel Goepfert
Assistance : Marc-Olivier Méhu




SOURCES & CREDITS :

   NOAA